Time;durP1;ratioP1;P1;durP2;ratioP2;P2;SDS_P1;SDS_P2;PMS_P1;PMS_P2;Temp;Humidity;BMP_temperature;BMP_pressure;BME280_temperature;BME280_humidity;BME280_pressure;Samples;Min_cycle;Max_cycle;Signal;HPM_P1;HPM_P2
2022/08/04 00:00:07;;;;;;;21.73;11.90;;;19.90;92.60;;;;;;5012481;28;20041;-73
2022/08/04 00:02:53;;;;;;;17.33;11.32;;;19.90;92.80;;;;;;5017812;28;20061;-73
2022/08/04 00:05:29;;;;;;;22.10;11.10;;;19.80;92.90;;;;;;5022587;28;20036;-73
2022/08/04 00:08:09;;;;;;;17.42;10.98;;;19.80;92.70;;;;;;5010105;28;20481;-73
2022/08/04 00:10:37;;;;;;;20.00;10.32;;;19.80;93.10;;;;;;5022364;28;20034;-73
2022/08/04 00:13:04;;;;;;;20.73;12.82;;;19.70;92.80;;;;;;5026974;28;20377;-73
2022/08/04 00:15:32;;;;;;;20.92;11.77;;;19.70;92.60;;;;;;5025314;28;20167;-73
2022/08/04 00:18:06;;;;;;;19.83;11.68;;;19.70;92.90;;;;;;5023902;28;20128;-73
2022/08/04 00:20:33;;;;;;;23.70;13.27;;;19.70;93.00;;;;;;5024066;28;20044;-73
2022/08/04 00:23:01;;;;;;;21.13;14.02;;;19.60;92.90;;;;;;5016817;28;20132;-73
2022/08/04 00:25:27;;;;;;;21.48;12.57;;;19.60;93.20;;;;;;5014671;28;20053;-73
2022/08/04 00:27:53;;;;;;;19.20;13.27;;;19.50;93.10;;;;;;5018242;28;20129;-73
2022/08/04 00:30:19;;;;;;;24.60;13.57;;;19.60;93.00;;;;;;5017794;28;20567;-73
2022/08/04 00:32:46;;;;;;;23.23;13.43;;;19.50;93.10;;;;;;5023169;28;20135;-73
2022/08/04 00:35:15;;;;;;;23.40;14.20;;;19.50;92.90;;;;;;5024941;28;20041;-73
2022/08/04 00:37:44;;;;;;;23.50;13.00;;;19.50;93.20;;;;;;5025102;28;20351;-73
2022/08/04 00:40:22;;;;;;;19.50;13.02;;;19.50;93.50;;;;;;5016815;28;20029;-72
2022/08/04 00:43:20;;;;;;;18.85;13.57;;;19.50;93.50;;;;;;5024337;28;20033;-73
2022/08/04 00:46:06;;;;;;;22.83;14.65;;;19.50;93.50;;;;;;5017059;28;20039;-73
2022/08/04 00:48:54;;;;;;;27.83;14.90;;;19.50;94.00;;;;;;5017106;28;20100;-73
2022/08/04 00:51:36;;;;;;;24.15;12.60;;;19.50;94.20;;;;;;5031027;28;20477;-73
2022/08/04 00:54:33;;;;;;;23.13;12.05;;;19.40;93.70;;;;;;5028094;28;20124;-73
2022/08/04 00:57:23;;;;;;;22.65;12.63;;;19.40;93.60;;;;;;5023558;28;20109;-73
2022/08/04 01:00:02;;;;;;;23.73;12.93;;;19.30;93.40;;;;;;5028090;28;20458;-73
2022/08/04 01:02:38;;;;;;;23.23;12.35;;;19.30;93.50;;;;;;5024821;28;20085;-73
2022/08/04 01:05:20;;;;;;;26.65;12.27;;;19.30;93.60;;;;;;5030796;28;20029;-73
2022/08/04 01:08:06;;;;;;;21.17;12.27;;;19.30;93.80;;;;;;5018119;28;20040;-73
2022/08/04 01:10:57;;;;;;;20.65;12.95;;;19.30;94.10;;;;;;5026264;28;20065;-73
2022/08/04 01:13:58;;;;;;;21.10;13.70;;;19.20;94.00;;;;;;5027044;28;20128;-73
2022/08/04 01:16:25;;;;;;;24.05;12.55;;;19.30;94.60;;;;;;5024153;28;20041;-73
2022/08/04 01:19:04;;;;;;;21.92;12.40;;;19.20;94.50;;;;;;5032831;28;20072;-73
2022/08/04 01:21:29;;;;;;;22.15;11.80;;;19.20;94.30;;;;;;5030051;28;20056;-73
2022/08/04 01:24:03;;;;;;;22.50;10.95;;;19.20;94.30;;;;;;5030593;28;20082;-73
2022/08/04 01:26:56;;;;;;;20.58;10.65;;;19.20;94.30;;;;;;5026862;28;20021;-73
2022/08/04 01:29:24;;;;;;;17.50;10.70;;;19.20;94.70;;;;;;5022346;28;20044;-73
2022/08/04 01:32:03;;;;;;;20.27;11.18;;;19.20;95.00;;;;;;5030226;28;20056;-74
2022/08/04 01:34:35;;;;;;;20.15;11.15;;;19.30;95.40;;;;;;5031604;28;20079;-73
2022/08/04 01:37:08;;;;;;;17.85;10.40;;;19.40;95.50;;;;;;5032197;28;20033;-74
2022/08/04 01:39:40;;;;;;;19.38;9.15;;;19.40;95.50;;;;;;5032320;28;20464;-73
2022/08/04 01:42:06;;;;;;;17.20;8.48;;;19.30;95.30;;;;;;5026528;28;20053;-73
2022/08/04 01:44:34;;;;;;;14.88;7.60;;;19.30;95.40;;;;;;5030282;28;20076;-73
2022/08/04 01:47:00;;;;;;;15.45;7.88;;;19.30;95.40;;;;;;5024453;28;20029;-73
2022/08/04 01:49:29;;;;;;;14.52;7.25;;;19.30;95.40;;;;;;5026955;28;20474;-73
2022/08/04 01:51:56;;;;;;;9.57;6.25;;;19.40;95.40;;;;;;5028744;28;20659;-72
2022/08/04 01:54:22;;;;;;;11.85;6.22;;;19.30;95.10;;;;;;5032136;28;20034;-72
2022/08/04 01:56:53;;;;;;;11.57;5.35;;;19.40;95.10;;;;;;5030976;28;20127;-73
2022/08/04 01:59:19;;;;;;;13.65;6.20;;;19.30;94.90;;;;;;5028887;28;20034;-73
2022/08/04 02:01:46;;;;;;;9.35;5.63;;;19.30;94.80;;;;;;5028248;28;20037;-73
2022/08/04 02:04:16;;;;;;;11.07;5.85;;;19.40;94.80;;;;;;5031316;28;20032;-73
2022/08/04 02:06:50;;;;;;;13.18;5.60;;;19.40;94.70;;;;;;5032939;28;20033;-73
2022/08/04 02:09:34;;;;;;;9.38;5.50;;;19.30;94.60;;;;;;5027480;28;20064;-72
2022/08/04 02:12:04;;;;;;;10.65;5.13;;;19.30;94.60;;;;;;5032853;28;20096;-73
2022/08/04 02:14:40;;;;;;;8.18;4.88;;;19.30;94.50;;;;;;5029852;28;20457;-73
2022/08/04 02:17:14;;;;;;;8.40;4.60;;;19.30;94.50;;;;;;5025822;28;20096;-73
2022/08/04 02:20:08;;;;;;;11.55;5.00;;;19.30;94.50;;;;;;5028133;28;20410;-73
2022/08/04 02:22:49;;;;;;;7.20;4.28;;;19.30;94.40;;;;;;5030519;28;20037;-73
2022/08/04 02:25:23;;;;;;;14.07;4.68;;;19.30;94.40;;;;;;5030305;28;20168;-73
2022/08/04 02:27:58;;;;;;;9.68;4.35;;;19.20;94.40;;;;;;5029867;28;20380;-73
2022/08/04 02:30:31;;;;;;;7.63;4.30;;;19.20;94.40;;;;;;5031529;28;20033;-72
2022/08/04 02:33:02;;;;;;;12.07;4.40;;;19.10;94.30;;;;;;5030042;28;20041;-73
2022/08/04 02:35:33;;;;;;;8.73;4.10;;;19.10;94.30;;;;;;5030195;28;20406;-73
2022/08/04 02:38:18;;;;;;;7.93;3.78;;;19.00;94.30;;;;;;5025916;28;20076;-73
2022/08/04 02:40:45;;;;;;;8.40;4.07;;;19.00;94.30;;;;;;5029806;28;20040;-73
2022/08/04 02:43:11;;;;;;;7.47;4.25;;;19.00;94.60;;;;;;5028635;28;20018;-73
2022/08/04 02:45:42;;;;;;;6.30;3.88;;;19.00;94.60;;;;;;5030906;28;20028;-73
2022/08/04 02:48:08;;;;;;;7.68;3.80;;;19.00;94.80;;;;;;5029262;28;20116;-73
2022/08/04 02:50:36;;;;;;;7.72;3.90;;;19.00;95.00;;;;;;5026551;28;20037;-73
2022/08/04 02:53:04;;;;;;;10.48;3.83;;;19.00;94.90;;;;;;5031039;28;20021;-73
2022/08/04 02:55:31;;;;;;;11.27;3.85;;;19.00;94.90;;;;;;5016649;28;20034;-73
2022/08/04 02:57:58;;;;;;;10.18;3.55;;;19.10;94.90;;;;;;5031763;28;20018;-73
2022/08/04 03:00:24;;;;;;;6.38;3.67;;;19.20;94.90;;;;;;5028628;28;20117;-73
2022/08/04 03:03:01;;;;;;;14.70;3.20;;;19.30;94.50;;;;;;5026772;28;20115;-73
2022/08/04 03:05:51;;;;;;;7.55;2.90;;;19.30;94.30;;;;;;5030952;28;20018;-73
2022/08/04 03:08:39;;;;;;;5.63;2.67;;;19.30;94.20;;;;;;5029461;28;20026;-73
2022/08/04 03:11:42;;;;;;;6.97;2.30;;;19.30;94.20;;;;;;5022448;28;20117;-73
2022/08/04 03:14:44;;;;;;;7.25;2.65;;;19.40;94.00;;;;;;5030868;28;20033;-73
2022/08/04 03:17:47;;;;;;;7.43;3.17;;;19.30;93.90;;;;;;5026203;28;20096;-73
2022/08/04 03:20:21;;;;;;;10.23;3.30;;;19.40;94.00;;;;;;5021860;28;20037;-73
2022/08/04 03:23:15;;;;;;;11.98;2.97;;;19.40;93.90;;;;;;5028223;28;20036;-73
2022/08/04 03:26:05;;;;;;;7.28;2.88;;;19.50;93.70;;;;;;5029103;28;20018;-73
2022/08/04 03:29:07;;;;;;;5.05;2.28;;;19.50;93.60;;;;;;5029533;28;20022;-73
2022/08/04 03:31:59;;;;;;;5.40;2.30;;;19.40;93.60;;;;;;5019360;28;20371;-73
2022/08/04 03:35:01;;;;;;;3.72;2.20;;;19.40;93.50;;;;;;5027532;28;20033;-73
2022/08/04 03:37:54;;;;;;;5.40;2.38;;;19.20;93.30;;;;;;5030210;28;20159;-73
2022/08/04 03:41:07;;;;;;;8.45;2.65;;;19.30;93.70;;;;;;5022375;28;20095;-73
2022/08/04 03:43:56;;;;;;;8.00;2.75;;;19.20;93.70;;;;;;5027027;28;20056;-73
2022/08/04 03:46:46;;;;;;;7.43;2.78;;;19.20;93.80;;;;;;5020027;28;20033;-73
2022/08/04 03:49:50;;;;;;;8.95;2.60;;;19.10;93.80;;;;;;5021635;28;20060;-73
2022/08/04 03:53:10;;;;;;;8.00;2.85;;;19.20;94.10;;;;;;5015835;28;20041;-71
2022/08/04 03:56:03;;;;;;;7.82;2.45;;;19.20;94.00;;;;;;5020126;28;20110;-71
2022/08/04 03:58:43;;;;;;;7.65;2.75;;;19.30;94.00;;;;;;5024704;28;20104;-71
2022/08/04 04:01:22;;;;;;;4.57;2.20;;;19.30;93.90;;;;;;5024570;28;20933;-71
2022/08/04 04:04:13;;;;;;;7.75;2.63;;;19.30;93.80;;;;;;5021775;28;20105;-71
2022/08/04 04:07:13;;;;;;;4.53;2.25;;;19.30;93.70;;;;;;5027026;28;20018;-71
2022/08/04 04:10:00;;;;;;;5.50;2.33;;;19.50;93.70;;;;;;5021648;28;20050;-71
2022/08/04 04:12:49;;;;;;;8.32;2.63;;;19.60;93.30;;;;;;5029486;28;20025;-71
2022/08/04 04:15:48;;;;;;;7.65;2.35;;;19.60;93.30;;;;;;5029341;28;20037;-71
2022/08/04 04:18:51;;;;;;;6.38;2.10;;;19.60;92.90;;;;;;5025574;28;20314;-71
2022/08/04 04:21:16;;;;;;;7.60;2.47;;;19.60;93.00;;;;;;5024165;28;20029;-71
2022/08/04 04:23:59;;;;;;;8.57;2.60;;;19.60;93.00;;;;;;5029724;28;20036;-71
2022/08/04 04:26:33;;;;;;;4.72;2.30;;;19.70;92.80;;;;;;5026084;28;20540;-71
2022/08/04 04:29:25;;;;;;;7.65;2.83;;;19.60;92.70;;;;;;5029397;28;20041;-69
2022/08/04 04:32:05;;;;;;;;;;;19.70;92.90;;;;;;5030125;28;20025;-70
2022/08/04 04:34:40;;;;;;;11.70;2.80;;;19.80;92.50;;;;;;5030803;28;19909;-69
2022/08/04 04:37:20;;;;;;;7.43;2.40;;;19.80;92.50;;;;;;5031566;28;20040;-69
2022/08/04 04:40:18;;;;;;;6.32;3.10;;;19.80;92.40;;;;;;5028072;28;20026;-69
2022/08/04 04:43:08;;;;;;;10.18;3.28;;;19.90;92.50;;;;;;5020244;28;20476;-69
2022/08/04 04:45:48;;;;;;;6.20;2.53;;;19.90;92.40;;;;;;5028798;28;20017;-69
2022/08/04 04:48:27;;;;;;;6.68;2.80;;;20.00;92.30;;;;;;5029635;28;20116;-69
2022/08/04 04:51:23;;;;;;;4.85;2.83;;;20.00;92.20;;;;;;5031380;28;20025;-69
2022/08/04 04:54:12;;;;;;;7.88;2.95;;;20.00;92.10;;;;;;5029329;28;20490;-69
2022/08/04 04:57:11;;;;;;;9.68;3.00;;;20.10;92.30;;;;;;5028690;28;20475;-69
2022/08/04 04:59:41;;;;;;;5.43;2.95;;;20.20;92.00;;;;;;5028010;28;20037;-69
2022/08/04 05:02:38;;;;;;;5.85;3.17;;;20.40;91.90;;;;;;5027812;28;20491;-69
2022/08/04 05:05:48;;;;;;;6.50;2.20;;;20.50;91.70;;;;;;5026638;28;20061;-69
2022/08/04 05:08:22;;;;;;;7.28;2.63;;;20.70;91.10;;;;;;5009808;28;20042;-70
2022/08/04 05:11:17;;;;;;;8.25;2.60;;;20.90;90.50;;;;;;5018085;28;20025;-70
2022/08/04 05:13:52;;;;;;;7.72;2.17;;;21.00;90.20;;;;;;5014824;28;20029;-70
2022/08/04 05:17:00;;;;;;;4.63;2.33;;;21.20;89.60;;;;;;5024603;28;20060;-69
2022/08/04 05:19:42;;;;;;;8.60;2.42;;;21.40;89.50;;;;;;5001636;28;20030;-73
2022/08/04 05:22:15;;;;;;;6.20;2.33;;;21.50;89.00;;;;;;5020843;28;20066;-74
2022/08/04 05:24:44;;;;;;;5.93;2.45;;;21.70;88.60;;;;;;5030833;28;20030;-74
2022/08/04 05:27:21;;;;;;;7.43;2.13;;;21.80;88.30;;;;;;5028560;28;20029;-74
2022/08/04 05:29:54;;;;;;;5.22;2.30;;;21.90;87.50;;;;;;5025775;28;20515;-74
2022/08/04 05:32:31;;;;;;;8.63;2.55;;;22.00;87.50;;;;;;5029754;28;20037;-74
2022/08/04 05:35:03;;;;;;;4.65;2.03;;;22.10;86.90;;;;;;5030539;28;20037;-74
2022/08/04 05:37:31;;;;;;;5.07;2.05;;;22.20;87.10;;;;;;5030371;28;20045;-74
2022/08/04 05:40:02;;;;;;;5.97;2.30;;;22.40;87.00;;;;;;5019464;28;20029;-73
2022/08/04 05:42:31;;;;;;;6.03;2.50;;;22.50;87.20;;;;;;5028187;28;20041;-74
2022/08/04 05:44:58;;;;;;;3.30;1.88;;;22.50;86.50;;;;;;5028640;28;20065;-74
2022/08/04 05:47:24;;;;;;;8.50;2.40;;;22.60;86.40;;;;;;5027254;28;20036;-75
2022/08/04 05:49:50;;;;;;;5.75;1.95;;;22.70;85.50;;;;;;5028853;28;20029;-75
2022/08/04 05:52:17;;;;;;;9.70;2.35;;;22.90;84.90;;;;;;5028155;28;20144;-74
2022/08/04 05:54:44;;;;;;;4.97;2.03;;;23.00;84.20;;;;;;5027244;28;20025;-74
2022/08/04 05:57:10;;;;;;;3.88;1.98;;;23.10;83.80;;;;;;5028036;28;20033;-74
2022/08/04 05:59:45;;;;;;;3.83;1.75;;;23.20;84.20;;;;;;5026170;28;20054;-74
2022/08/04 06:02:13;;;;;;;6.22;2.03;;;23.30;83.50;;;;;;5025929;28;20022;-74
2022/08/04 06:04:41;;;;;;;6.50;2.05;;;23.40;83.60;;;;;;5030248;28;20025;-74
2022/08/04 06:07:07;;;;;;;6.93;2.10;;;23.40;83.90;;;;;;5031319;28;20931;-74
2022/08/04 06:09:33;;;;;;;7.68;2.47;;;23.40;84.00;;;;;;5029665;28;20111;-74
2022/08/04 06:12:13;;;;;;;7.07;1.90;;;23.40;83.80;;;;;;5032832;28;20025;-74
2022/08/04 06:14:42;;;;;;;4.00;1.88;;;23.50;83.30;;;;;;5030511;28;20582;-75
2022/08/04 06:17:13;;;;;;;8.77;2.13;;;23.50;82.90;;;;;;5021835;28;20037;-74
2022/08/04 06:19:40;;;;;;;7.40;2.00;;;23.60;82.00;;;;;;5018966;28;20396;-74
2022/08/04 06:22:09;;;;;;;4.38;1.70;;;23.60;82.70;;;;;;5028200;28;20017;-74
2022/08/04 06:24:37;;;;;;;7.15;2.47;;;23.70;82.70;;;;;;5026103;28;20136;-74
2022/08/04 06:27:05;;;;;;;5.85;2.00;;;23.70;82.50;;;;;;5032321;28;20488;-74
2022/08/04 06:29:36;;;;;;;8.18;1.98;;;23.80;81.70;;;;;;5029588;28;20480;-74
2022/08/04 06:32:12;;;;;;;7.78;2.00;;;24.00;81.90;;;;;;5029859;28;20728;-74
2022/08/04 06:34:39;;;;;;;5.38;1.90;;;24.10;81.30;;;;;;5031089;28;20029;-74
2022/08/04 06:37:07;;;;;;;4.47;1.83;;;24.20;79.10;;;;;;5031952;28;20507;-74
2022/08/04 06:39:33;;;;;;;4.65;1.80;;;24.20;79.60;;;;;;5030774;28;20603;-74
2022/08/04 06:41:59;;;;;;;7.20;2.13;;;24.30;79.10;;;;;;5030583;28;20044;-74
2022/08/04 06:44:27;;;;;;;4.57;1.80;;;24.30;79.60;;;;;;5031471;28;20362;-75
2022/08/04 06:46:53;;;;;;;4.10;1.50;;;24.40;79.00;;;;;;5025504;28;20021;-74
2022/08/04 06:49:21;;;;;;;33.42;3.03;;;24.50;78.10;;;;;;5026843;28;20026;-74
2022/08/04 06:51:48;;;;;;;5.18;1.77;;;24.60;77.30;;;;;;5029594;28;20044;-74
2022/08/04 06:54:13;;;;;;;6.00;1.70;;;24.80;76.90;;;;;;5031080;28;20102;-74
2022/08/04 06:56:41;;;;;;;6.82;1.73;;;25.00;76.50;;;;;;5027388;28;20444;-74
2022/08/04 06:59:08;;;;;;;4.63;1.60;;;25.10;74.60;;;;;;5028125;28;20089;-74
2022/08/04 07:01:36;;;;;;;4.47;1.83;;;25.30;75.30;;;;;;5028393;28;20049;-74
2022/08/04 07:04:03;;;;;;;7.05;1.80;;;25.40;76.40;;;;;;5028268;28;20038;-74
2022/08/04 07:06:28;;;;;;;5.95;1.73;;;25.60;73.30;;;;;;5027071;28;20018;-74
2022/08/04 07:08:55;;;;;;;7.72;1.88;;;25.80;71.90;;;;;;5025497;28;20026;-74
2022/08/04 07:11:20;;;;;;;5.22;1.90;;;25.90;72.10;;;;;;5023610;28;20171;-74
2022/08/04 07:13:48;;;;;;;8.73;1.80;;;26.00;69.80;;;;;;5029714;28;20543;-74
2022/08/04 07:16:15;;;;;;;4.63;1.50;;;26.30;71.10;;;;;;5028107;28;20159;-74
2022/08/04 07:18:41;;;;;;;6.57;1.42;;;26.60;71.20;;;;;;5028845;28;20030;-74
2022/08/04 07:21:07;;;;;;;5.45;1.85;;;26.70;70.00;;;;;;5030054;28;20052;-74
2022/08/04 07:23:32;;;;;;;6.38;1.52;;;26.70;69.30;;;;;;5030625;28;20052;-74
2022/08/04 07:25:58;;;;;;;4.57;2.08;;;26.90;69.10;;;;;;5025112;28;20022;-74
2022/08/04 07:28:28;;;;;;;6.10;1.70;;;27.10;67.60;;;;;;5020732;28;20028;-74
2022/08/04 07:30:55;;;;;;;5.07;1.65;;;27.20;68.20;;;;;;5029717;28;20636;-74
2022/08/04 07:33:22;;;;;;;5.20;1.88;;;27.30;68.30;;;;;;5029269;28;20041;-74
2022/08/04 07:35:53;;;;;;;7.72;1.90;;;27.40;68.90;;;;;;5029463;28;20033;-74
2022/08/04 07:38:19;;;;;;;6.70;1.80;;;27.50;65.70;;;;;;5030586;28;20061;-74
2022/08/04 07:40:45;;;;;;;5.55;1.88;;;27.70;67.90;;;;;;5029678;28;20083;-74
2022/08/04 07:43:13;;;;;;;5.63;1.70;;;27.70;65.40;;;;;;5024490;28;20030;-74
2022/08/04 07:45:39;;;;;;;3.42;1.58;;;27.70;64.70;;;;;;5031286;28;20034;-74
2022/08/04 07:48:05;;;;;;;2.67;1.27;;;27.80;67.30;;;;;;5028627;28;20338;-74
2022/08/04 07:50:32;;;;;;;5.88;1.70;;;28.00;67.40;;;;;;5027674;28;20049;-74
2022/08/04 07:52:58;;;;;;;2.90;1.38;;;28.10;65.50;;;;;;5030942;28;20107;-74
2022/08/04 07:55:24;;;;;;;6.78;2.15;;;28.30;65.00;;;;;;5030582;28;20462;-74
2022/08/04 07:57:50;;;;;;;4.45;1.90;;;28.50;63.50;;;;;;5028355;28;20048;-74
2022/08/04 08:00:16;;;;;;;4.55;1.80;;;28.70;63.70;;;;;;5027601;28;20809;-74
2022/08/04 08:02:47;;;;;;;6.38;1.60;;;28.90;63.40;;;;;;5026016;28;20041;-74
2022/08/04 08:05:18;;;;;;;6.13;1.60;;;29.00;63.30;;;;;;5028920;28;20064;-74
2022/08/04 08:07:48;;;;;;;3.45;1.58;;;29.10;61.50;;;;;;5026353;28;20560;-73
2022/08/04 08:10:14;;;;;;;4.45;1.73;;;29.30;60.50;;;;;;5030013;28;20105;-74
2022/08/04 08:12:41;;;;;;;4.32;1.60;;;29.30;59.50;;;;;;5029128;28;20519;-74
2022/08/04 08:15:08;;;;;;;9.48;2.28;;;29.50;60.80;;;;;;5025179;28;20026;-74
2022/08/04 08:17:34;;;;;;;6.10;1.90;;;29.60;60.50;;;;;;5024430;28;20026;-74
2022/08/04 08:20:00;;;;;;;4.95;1.75;;;29.70;59.00;;;;;;5025071;28;20036;-75
2022/08/04 08:22:26;;;;;;;7.40;2.03;;;29.80;60.20;;;;;;5017606;28;20029;-74
2022/08/04 08:24:52;;;;;;;7.03;1.73;;;29.80;59.30;;;;;;5029655;28;20354;-74
2022/08/04 08:27:18;;;;;;;4.55;1.50;;;29.70;58.10;;;;;;5020879;28;20021;-74
2022/08/04 08:29:44;;;;;;;3.00;1.42;;;30.00;57.30;;;;;;5027315;28;20108;-74
2022/08/04 08:32:14;;;;;;;7.10;1.80;;;30.20;54.70;;;;;;5027186;28;20033;-74
2022/08/04 08:34:41;;;;;;;2.22;1.40;;;30.30;54.60;;;;;;5026137;28;20025;-74
2022/08/04 08:37:23;;;;;;;4.32;1.80;;;30.40;54.20;;;;;;5028107;28;20061;-75
2022/08/04 08:40:03;;;;;;;2.95;1.27;;;30.40;55.80;;;;;;5018510;28;20048;-74
2022/08/04 08:42:38;;;;;;;7.90;1.80;;;30.30;53.30;;;;;;5023035;28;20029;-74
2022/08/04 08:45:15;;;;;;;3.45;1.40;;;30.10;50.30;;;;;;5024885;28;20025;-74
2022/08/04 08:48:10;;;;;;;3.97;1.52;;;30.20;51.00;;;;;;5019015;28;20034;-74
2022/08/04 08:50:47;;;;;;;2.50;1.17;;;30.50;52.00;;;;;;5025455;28;20159;-74
2022/08/04 08:53:40;;;;;;;3.63;1.27;;;30.90;51.40;;;;;;5025589;28;20034;-74
2022/08/04 08:56:18;;;;;;;3.83;1.23;;;31.20;50.80;;;;;;5029214;28;20477;-74
2022/08/04 08:58:50;;;;;;;4.97;1.50;;;31.40;48.40;;;;;;5025753;28;20460;-74
2022/08/04 09:01:34;;;;;;;4.85;1.42;;;31.70;48.50;;;;;;5026940;28;20443;-74
2022/08/04 09:04:27;;;;;;;5.55;1.70;;;31.50;45.70;;;;;;5020103;28;20029;-74
2022/08/04 09:06:58;;;;;;;3.38;1.67;;;31.20;48.10;;;;;;5022235;28;20404;-74
2022/08/04 09:10:01;;;;;;;4.18;1.40;;;31.20;48.60;;;;;;5030603;28;20033;-74
2022/08/04 09:12:49;;;;;;;2.55;1.38;;;31.50;44.80;;;;;;5031185;28;20385;-74
2022/08/04 09:15:35;;;;;;;2.53;1.38;;;31.60;43.90;;;;;;5033270;28;20032;-74
2022/08/04 09:18:21;;;;;;;2.15;1.23;;;31.70;44.70;;;;;;5029399;28;20029;-74
2022/08/04 09:21:08;;;;;;;4.53;1.73;;;31.90;43.00;;;;;;5031684;28;20029;-74
2022/08/04 09:23:37;;;;;;;2.00;1.42;;;32.00;43.70;;;;;;5031098;28;20303;-74
2022/08/04 09:26:09;;;;;;;2.08;1.25;;;32.30;43.80;;;;;;5033311;28;20100;-74
2022/08/04 09:28:47;;;;;;;3.55;1.48;;;32.20;40.30;;;;;;5032849;28;20105;-74
2022/08/04 09:31:16;;;;;;;3.08;1.50;;;32.20;41.20;;;;;;5032297;28;20037;-74
2022/08/04 09:34:07;;;;;;;2.42;1.30;;;32.30;38.60;;;;;;5030458;28;20042;-74
2022/08/04 09:37:12;;;;;;;2.50;1.50;;;32.60;40.60;;;;;;5025802;28;20088;-74
2022/08/04 09:39:55;;;;;;;2.40;1.38;;;32.60;41.00;;;;;;5029219;28;20033;-74
2022/08/04 09:42:43;;;;;;;6.97;1.45;;;32.90;39.50;;;;;;5025322;28;20044;-74
2022/08/04 09:45:18;;;;;;;2.13;1.30;;;33.30;40.00;;;;;;5025621;28;20373;-74
2022/08/04 09:47:51;;;;;;;2.15;1.30;;;33.00;38.40;;;;;;5028024;28;20028;-74
2022/08/04 09:50:19;;;;;;;3.10;1.25;;;33.00;38.70;;;;;;5018525;28;20041;-74
2022/08/04 09:53:09;;;;;;;5.93;1.67;;;33.60;40.30;;;;;;5027462;28;20397;-74
2022/08/04 09:55:56;;;;;;;4.55;1.30;;;33.60;37.00;;;;;;5031511;28;20038;-74
2022/08/04 09:58:56;;;;;;;1.95;1.25;;;33.90;38.20;;;;;;5025653;28;20061;-74
2022/08/04 10:01:24;;;;;;;2.58;1.40;;;33.70;35.90;;;;;;5029188;28;20047;-74
2022/08/04 10:03:54;;;;;;;1.70;1.20;;;33.40;37.50;;;;;;5023674;28;20036;-74
2022/08/04 10:06:37;;;;;;;2.00;1.60;;;33.60;36.80;;;;;;5031449;28;20623;-74
2022/08/04 10:09:44;;;;;;;3.22;1.40;;;33.60;37.60;;;;;;5029157;28;20037;-74
2022/08/04 10:12:50;;;;;;;2.25;1.30;;;33.30;37.90;;;;;;5023955;28;20037;-74
2022/08/04 10:15:21;;;;;;;2.17;1.42;;;33.00;39.90;;;;;;5003396;28;20373;-74
2022/08/04 10:17:55;;;;;;;2.83;1.50;;;33.10;39.00;;;;;;5028063;28;20056;-74
2022/08/04 10:20:30;;;;;;;2.10;1.38;;;33.50;39.70;;;;;;5029898;28;20458;-74
2022/08/04 10:23:14;;;;;;;5.25;1.63;;;34.10;38.00;;;;;;5032103;28;20021;-74
2022/08/04 10:26:05;;;;;;;4.55;1.58;;;34.20;39.80;;;;;;5023134;28;20025;-74
2022/08/04 10:28:36;;;;;;;5.13;1.85;;;34.40;39.10;;;;;;5025431;28;20033;-74
2022/08/04 10:31:06;;;;;;;9.70;2.17;;;34.50;37.20;;;;;;5031465;28;20437;-75
2022/08/04 10:33:48;;;;;;;3.97;1.52;;;34.30;37.30;;;;;;5028109;28;20037;-75
2022/08/04 10:36:20;;;;;;;5.00;1.75;;;34.30;39.80;;;;;;5031256;28;20040;-75
2022/08/04 10:39:02;;;;;;;2.95;1.45;;;34.20;37.50;;;;;;5026718;28;20041;-74
2022/08/04 10:41:40;;;;;;;2.30;1.52;;;34.30;37.20;;;;;;5019347;28;20033;-74
2022/08/04 10:44:23;;;;;;;4.05;1.80;;;34.60;37.40;;;;;;5023624;28;20048;-74
2022/08/04 10:46:57;;;;;;;3.25;1.40;;;34.50;35.80;;;;;;5023834;28;20018;-74
2022/08/04 10:49:35;;;;;;;3.13;1.42;;;34.90;35.90;;;;;;5022365;28;20495;-74
2022/08/04 10:52:16;;;;;;;2.00;1.20;;;34.90;34.70;;;;;;5021402;28;20314;-75
2022/08/04 10:55:05;;;;;;;1.73;1.10;;;35.00;34.20;;;;;;5017506;28;20369;-74
2022/08/04 10:57:37;;;;;;;2.47;1.10;;;35.20;34.30;;;;;;5018449;28;20036;-72
2022/08/04 11:00:15;;;;;;;3.05;1.23;;;35.50;34.60;;;;;;5018184;28;20044;-72
2022/08/04 11:02:52;;;;;;;3.83;1.40;;;35.60;32.90;;;;;;5017854;28;20025;-72
2022/08/04 11:05:45;;;;;;;3.22;1.10;;;36.10;33.30;;;;;;5021179;28;20026;-72
2022/08/04 11:08:17;;;;;;;2.13;1.17;;;36.10;31.90;;;;;;5020589;28;20040;-73
2022/08/04 11:10:50;;;;;;;1.55;1.13;;;36.40;33.50;;;;;;5021776;28;20109;-72
2022/08/04 11:13:16;;;;;;;3.63;1.38;;;36.60;31.70;;;;;;5029060;28;20457;-72
2022/08/04 11:15:54;;;;;;;3.50;1.17;;;37.20;32.20;;;;;;5026089;28;20072;-72
2022/08/04 11:18:30;;;;;;;2.85;1.00;;;37.40;31.40;;;;;;5013661;28;20017;-72
2022/08/04 11:21:03;;;;;;;2.67;1.38;;;36.50;32.20;;;;;;5026785;28;20033;-72
2022/08/04 11:23:34;;;;;;;1.80;1.15;;;36.90;31.60;;;;;;5026029;28;20032;-72
2022/08/04 11:26:20;;;;;;;3.85;1.55;;;37.20;31.50;;;;;;5023326;28;20037;-72
2022/08/04 11:29:09;;;;;;;2.22;1.20;;;36.70;30.80;;;;;;5021030;28;20542;-71
2022/08/04 11:31:40;;;;;;;2.97;1.42;;;36.40;32.90;;;;;;5028903;28;20472;-71
2022/08/04 11:34:11;;;;;;;1.95;1.27;;;36.30;32.30;;;;;;5026792;28;20116;-72
2022/08/04 11:36:48;;;;;;;4.32;1.58;;;35.90;32.20;;;;;;5029082;28;20044;-72
2022/08/04 11:39:28;;;;;;;4.07;1.50;;;35.90;32.10;;;;;;5015772;28;20060;-71
2022/08/04 11:42:00;;;;;;;;;;;35.90;33.50;;;;;;5018446;28;20049;-72
2022/08/04 11:44:31;;;;;;;1.48;1.27;;;35.90;33.40;;;;;;5025303;28;19916;-71
2022/08/04 11:47:02;;;;;;;2.40;1.50;;;35.60;33.50;;;;;;5025767;28;20044;-71
2022/08/04 11:49:40;;;;;;;2.63;1.30;;;36.10;32.90;;;;;;5028754;28;20098;-71
2022/08/04 11:52:08;;;;;;;2.60;1.50;;;36.40;32.10;;;;;;5019720;28;20032;-71
2022/08/04 11:54:36;;;;;;;2.50;1.20;;;36.30;33.50;;;;;;5028467;28;20500;-71
2022/08/04 11:57:03;;;;;;;1.95;1.25;;;36.10;32.70;;;;;;5028767;28;20219;-71
2022/08/04 11:59:30;;;;;;;2.78;1.52;;;36.30;34.20;;;;;;5030420;28;20323;-71
2022/08/04 12:02:32;;;;;;;2.85;1.70;;;36.90;32.20;;;;;;5021919;28;20486;-72
2022/08/04 12:05:00;;;;;;;3.08;1.00;;;37.10;32.10;;;;;;5028975;28;20378;-71
2022/08/04 12:07:59;;;;;;;4.57;1.23;;;37.00;31.00;;;;;;5023537;28;20217;-72
2022/08/04 12:10:52;;;;;;;1.85;1.20;;;37.30;33.10;;;;;;5024823;28;20108;-72
2022/08/04 12:13:24;;;;;;;4.97;1.35;;;37.10;30.80;;;;;;5028278;28;20030;-71
2022/08/04 12:16:30;;;;;;;1.40;1.10;;;37.30;30.60;;;;;;5024823;28;20121;-71
2022/08/04 12:19:05;;;;;;;2.97;1.25;;;37.50;31.90;;;;;;5009143;28;20045;-71
2022/08/04 12:21:37;;;;;;;3.03;1.30;;;38.10;29.60;;;;;;5028620;28;20037;-72
2022/08/04 12:24:12;;;;;;;3.88;1.55;;;38.10;29.80;;;;;;5026592;28;20147;-71
2022/08/04 12:26:43;;;;;;;2.60;1.25;;;38.60;30.40;;;;;;5025594;28;20095;-72
2022/08/04 12:29:13;;;;;;;5.65;1.52;;;38.60;29.00;;;;;;5025819;28;20619;-72
2022/08/04 12:32:03;;;;;;;1.25;1.00;;;39.10;30.40;;;;;;5026931;28;20599;-72
2022/08/04 12:34:39;;;;;;;;;;;39.90;29.50;;;;;;5026070;28;20056;-71
2022/08/04 12:37:25;;;;;;;3.30;1.20;;;38.30;28.60;;;;;;5020792;28;20369;-72
2022/08/04 12:39:52;;;;;;;1.20;1.10;;;38.50;30.70;;;;;;5025645;28;20058;-71
2022/08/04 12:42:29;;;;;;;1.73;1.10;;;38.50;29.50;;;;;;5016159;28;20065;-71
2022/08/04 12:44:58;;;;;;;2.50;1.15;;;39.10;28.90;;;;;;5027727;28;20029;-72
2022/08/04 12:47:28;;;;;;;2.55;1.15;;;39.30;28.10;;;;;;5024511;28;20029;-72
2022/08/04 12:50:00;;;;;;;2.25;1.05;;;39.70;30.20;;;;;;5032196;28;20026;-72
2022/08/04 12:52:26;;;;;;;2.35;0.98;;;39.50;28.30;;;;;;5030857;28;20030;-71
2022/08/04 12:54:54;;;;;;;4.70;1.23;;;39.80;27.50;;;;;;5028598;28;20547;-71
2022/08/04 12:57:21;;;;;;;1.23;0.98;;;40.20;27.20;;;;;;5022708;28;20097;-72
2022/08/04 12:59:47;;;;;;;1.67;0.90;;;40.10;27.30;;;;;;5030646;28;20461;-71
2022/08/04 13:02:24;;;;;;;2.33;1.20;;;40.20;27.50;;;;;;5030112;28;20111;-71
2022/08/04 13:04:51;;;;;;;3.38;0.95;;;39.60;26.10;;;;;;5031523;28;20033;-71
2022/08/04 13:07:23;;;;;;;2.17;0.90;;;39.50;27.30;;;;;;5029821;28;20025;-72
2022/08/04 13:09:50;;;;;;;1.85;1.05;;;40.00;26.90;;;;;;5030357;28;20061;-72
2022/08/04 13:12:23;;;;;;;2.92;1.17;;;39.80;28.00;;;;;;5032274;28;20025;-71
2022/08/04 13:14:51;;;;;;;2.55;0.77;;;39.30;26.50;;;;;;5032483;28;20099;-71
2022/08/04 13:17:18;;;;;;;2.83;1.17;;;39.50;27.50;;;;;;5029262;28;20076;-71
2022/08/04 13:19:49;;;;;;;3.63;1.10;;;38.60;28.40;;;;;;5028337;28;20025;-71
2022/08/04 13:22:26;;;;;;;3.58;1.00;;;38.40;28.90;;;;;;5024358;28;20103;-71
2022/08/04 13:24:54;;;;;;;2.05;1.00;;;37.90;30.10;;;;;;5019368;28;20041;-71
2022/08/04 13:27:21;;;;;;;3.90;0.88;;;39.10;28.00;;;;;;5027256;28;20045;-71
2022/08/04 13:29:49;;;;;;;4.15;1.10;;;38.40;27.60;;;;;;5022706;28;20401;-71
2022/08/04 13:32:19;;;;;;;3.65;0.90;;;38.40;28.50;;;;;;5029425;28;20030;-71